createdAt,value
2022-10-06T00:01:28.056Z,98093.91
2022-10-06T00:03:54.485Z,98108.06
2022-10-06T00:06:20.889Z,98107.03
2022-10-06T00:08:47.910Z,98101.91
2022-10-06T00:11:15.598Z,98103.72
2022-10-06T00:13:42.090Z,98104.25
2022-10-06T00:16:17.108Z,98112.94
2022-10-06T00:18:44.217Z,98112.91
2022-10-06T00:21:10.685Z,98120.22
2022-10-06T00:23:37.077Z,98125.34
2022-10-06T00:26:03.497Z,98123.56
2022-10-06T00:28:30.238Z,98127.22
2022-10-06T00:31:01.659Z,98131.16
2022-10-06T00:33:28.144Z,98136.41
2022-10-06T00:35:58.378Z,98129.31
2022-10-06T00:38:26.669Z,98136.34
2022-10-06T00:40:53.451Z,98136.16
2022-10-06T00:43:38.749Z,98140.97
2022-10-06T00:46:08.039Z,98148.28
2022-10-06T00:48:34.733Z,98143.84
2022-10-06T00:51:01.720Z,98154.53
2022-10-06T00:53:29.999Z,98156.91
2022-10-06T00:55:57.236Z,98161.09
2022-10-06T00:58:24.072Z,98162.91
2022-10-06T01:00:55.929Z,98160.59
2022-10-06T01:03:30.043Z,98160.25
2022-10-06T01:05:58.038Z,98159.81
2022-10-06T01:08:26.191Z,98168.47
2022-10-06T01:10:52.806Z,98172.31
2022-10-06T01:13:21.283Z,98177.84
2022-10-06T01:15:53.182Z,98176.56
2022-10-06T01:18:22.313Z,98176.22
2022-10-06T01:20:55.417Z,98179.41
2022-10-06T01:23:22.060Z,98194.00
2022-10-06T01:25:49.140Z,98189.06
2022-10-06T01:28:15.668Z,98186.91
2022-10-06T01:30:52.515Z,98188.22
2022-10-06T01:33:22.009Z,98198.13
2022-10-06T01:35:51.751Z,98188.31
2022-10-06T01:38:19.936Z,98193.53
2022-10-06T01:40:51.092Z,98189.44
2022-10-06T01:43:17.565Z,98188.00
2022-10-06T01:45:44.029Z,98185.88
2022-10-06T01:48:10.496Z,98195.53
2022-10-06T01:50:40.796Z,98182.09
2022-10-06T01:53:07.321Z,98193.06
2022-10-06T01:55:33.761Z,98198.69
2022-10-06T01:58:01.460Z,98199.16
2022-10-06T02:00:28.149Z,98200.91
2022-10-06T02:02:57.173Z,98201.84
2022-10-06T02:05:23.866Z,98199.50
2022-10-06T02:07:52.338Z,98204.19
2022-10-06T02:10:19.100Z,98209.47
2022-10-06T02:12:53.369Z,98208.50
2022-10-06T02:15:21.653Z,98205.91
2022-10-06T02:17:48.547Z,98212.28
2022-10-06T02:20:15.648Z,98223.78
2022-10-06T02:22:43.710Z,98227.22
2022-10-06T02:25:12.182Z,98223.06
2022-10-06T02:27:39.384Z,98226.56
2022-10-06T02:30:08.645Z,98233.22
2022-10-06T02:32:38.762Z,98233.47
2022-10-06T02:35:06.978Z,98228.56
2022-10-06T02:37:34.125Z,98229.19
2022-10-06T02:40:02.103Z,98226.94
2022-10-06T02:42:30.101Z,98228.50
2022-10-06T02:44:58.826Z,98238.59
2022-10-06T02:47:25.319Z,98240.59
2022-10-06T02:49:53.258Z,98246.81
2022-10-06T02:52:20.116Z,98252.03
2022-10-06T02:54:47.818Z,98260.03
2022-10-06T02:57:15.463Z,98265.81
2022-10-06T02:59:42.902Z,98267.66
2022-10-06T03:02:09.644Z,98272.03
2022-10-06T03:04:36.342Z,98273.41
2022-10-06T03:07:03.106Z,98279.25
2022-10-06T03:09:34.731Z,98288.50
2022-10-06T03:12:01.217Z,98287.19
2022-10-06T03:14:39.259Z,98299.16
2022-10-06T03:17:09.809Z,98297.66
2022-10-06T03:19:40.036Z,98304.06
2022-10-06T03:22:06.578Z,98310.66
2022-10-06T03:24:39.795Z,98314.28
2022-10-06T03:27:06.284Z,98311.81
2022-10-06T03:29:32.742Z,98315.28
2022-10-06T03:31:59.597Z,98315.19
2022-10-06T03:34:26.392Z,98326.91
2022-10-06T03:36:54.391Z,98328.75
2022-10-06T03:39:23.277Z,98333.59
2022-10-06T03:41:50.180Z,98336.81
2022-10-06T03:44:17.017Z,98345.53
2022-10-06T03:46:44.018Z,98344.13
2022-10-06T03:49:10.675Z,98355.09
2022-10-06T03:51:39.145Z,98357.19
2022-10-06T03:54:10.686Z,98349.53
2022-10-06T03:56:40.821Z,98354.25
2022-10-06T03:59:11.427Z,98349.63
2022-10-06T04:01:44.897Z,98343.41
2022-10-06T04:04:14.277Z,98352.78
2022-10-06T04:06:43.961Z,98357.78
2022-10-06T04:09:15.885Z,98354.63
2022-10-06T04:11:44.854Z,98346.06
2022-10-06T04:14:15.224Z,98355.81
2022-10-06T04:16:50.357Z,98367.22
2022-10-06T04:19:37.209Z,98374.56
2022-10-06T04:22:03.717Z,98376.97
2022-10-06T04:24:31.018Z,98370.88
2022-10-06T04:27:17.644Z,98375.81
2022-10-06T04:29:49.842Z,98378.19
2022-10-06T04:32:16.335Z,98380.63
2022-10-06T04:34:42.809Z,98378.53
2022-10-06T04:37:10.659Z,98380.00
2022-10-06T04:39:38.288Z,98383.88
2022-10-06T04:42:06.811Z,98392.78
2022-10-06T04:44:33.337Z,98390.31
2022-10-06T04:47:01.896Z,98396.91
2022-10-06T04:49:28.491Z,98399.63
2022-10-06T04:51:56.195Z,98404.28
2022-10-06T04:54:23.015Z,98403.13
2022-10-06T04:56:54.331Z,98409.13
2022-10-06T04:59:43.257Z,98407.97
2022-10-06T05:02:11.223Z,98419.16
2022-10-06T05:04:38.184Z,98420.44
2022-10-06T05:07:05.644Z,98416.25
2022-10-06T05:09:32.453Z,98425.22
2022-10-06T05:12:00.376Z,98434.00
2022-10-06T05:14:26.776Z,98432.06
2022-10-06T05:16:53.315Z,98436.38
2022-10-06T05:19:20.552Z,98443.50
2022-10-06T05:21:47.171Z,98448.09
2022-10-06T05:24:17.431Z,98441.00
2022-10-06T05:26:43.874Z,98453.53
2022-10-06T05:29:13.612Z,98457.84
2022-10-06T05:31:42.916Z,98460.50
2022-10-06T05:34:09.475Z,98462.88
2022-10-06T05:36:36.593Z,98459.91
2022-10-06T05:39:05.211Z,98463.94
2022-10-06T05:41:38.061Z,98468.31
2022-10-06T05:44:07.087Z,98472.34
2022-10-06T05:46:35.200Z,98472.88
2022-10-06T05:49:04.272Z,98479.66
2022-10-06T05:51:33.896Z,98465.91
2022-10-06T05:54:04.420Z,98482.19
2022-10-06T05:56:32.733Z,98477.97
2022-10-06T05:59:00.417Z,98484.81
2022-10-06T06:01:36.295Z,98485.88
2022-10-06T06:04:12.228Z,98494.97
2022-10-06T06:06:47.125Z,98497.94
2022-10-06T06:09:19.357Z,98502.91
2022-10-06T06:11:50.556Z,98501.59
2022-10-06T06:14:40.271Z,98503.81
2022-10-06T06:17:07.832Z,98510.59
2022-10-06T06:19:34.264Z,98505.88
2022-10-06T06:22:01.226Z,98517.00
2022-10-06T06:24:28.984Z,98524.03
2022-10-06T06:26:55.497Z,98526.03
2022-10-06T06:29:23.136Z,98537.09
2022-10-06T06:31:50.960Z,98540.63
2022-10-06T06:34:17.484Z,98548.16
2022-10-06T06:36:46.907Z,98557.38
2022-10-06T06:39:17.537Z,98551.19
2022-10-06T06:41:46.912Z,98563.00
2022-10-06T06:44:34.685Z,98562.50
2022-10-06T06:47:05.019Z,98569.25
2022-10-06T06:49:31.433Z,98573.25
2022-10-06T06:52:04.569Z,98579.91
2022-10-06T06:54:33.149Z,98580.06
2022-10-06T06:57:07.329Z,98588.16
2022-10-06T06:59:34.041Z,98594.94
2022-10-06T07:02:01.091Z,98594.34
2022-10-06T07:04:30.434Z,98601.94
2022-10-06T07:06:57.862Z,98609.50
2022-10-06T07:09:28.237Z,98609.38
2022-10-06T07:12:04.005Z,98614.00
2022-10-06T07:14:31.538Z,98620.13
2022-10-06T07:17:17.685Z,98611.19
2022-10-06T07:19:50.776Z,98621.97
2022-10-06T07:22:39.598Z,98626.13
2022-10-06T07:25:26.955Z,98621.94
2022-10-06T07:28:02.476Z,98625.31
2022-10-06T07:30:37.133Z,98626.53
2022-10-06T07:33:11.996Z,98629.66
2022-10-06T07:35:39.474Z,98626.94
2022-10-06T07:38:07.879Z,98636.34
2022-10-06T07:40:46.278Z,98628.84
2022-10-06T07:43:17.807Z,98627.25
2022-10-06T07:45:46.958Z,98637.75
2022-10-06T07:48:32.117Z,98646.22
2022-10-06T07:51:01.503Z,98645.81
2022-10-06T07:53:33.677Z,98641.63
2022-10-06T07:56:08.222Z,98647.72
2022-10-06T07:58:39.529Z,98650.94
2022-10-06T08:01:08.125Z,98651.84
2022-10-06T08:03:36.520Z,98662.25
2022-10-06T08:06:03.418Z,98661.13
2022-10-06T08:08:32.593Z,98667.06
2022-10-06T08:11:01.642Z,98664.09
2022-10-06T08:13:28.824Z,98670.31
2022-10-06T08:15:56.394Z,98672.28
2022-10-06T08:18:45.494Z,98668.66
2022-10-06T08:21:17.552Z,98671.31
2022-10-06T08:23:46.392Z,98670.66
2022-10-06T08:26:14.237Z,98680.16
2022-10-06T08:28:45.663Z,98685.44
2022-10-06T08:31:12.373Z,98689.91
2022-10-06T08:33:39.619Z,98689.22
2022-10-06T08:36:08.804Z,98691.22
2022-10-06T08:38:39.034Z,98694.50
2022-10-06T08:41:17.640Z,98692.28
2022-10-06T08:43:54.384Z,98693.91
2022-10-06T08:46:24.868Z,98701.56
2022-10-06T08:48:51.744Z,98700.97
2022-10-06T08:51:43.316Z,98699.25
2022-10-06T08:54:14.033Z,98705.84
2022-10-06T08:57:05.735Z,98712.47
2022-10-06T08:59:35.664Z,98708.41
2022-10-06T09:02:06.622Z,98714.13
2022-10-06T09:04:34.124Z,98716.84
2022-10-06T09:07:11.792Z,98719.59
2022-10-06T09:10:03.199Z,98710.38
2022-10-06T09:12:42.644Z,98719.16
2022-10-06T09:15:15.192Z,98714.59
2022-10-06T09:17:50.133Z,98711.69
2022-10-06T09:20:32.300Z,98708.41
2022-10-06T09:23:01.778Z,98710.28
2022-10-06T09:25:29.912Z,98716.47
2022-10-06T09:27:58.768Z,98719.13
2022-10-06T09:30:26.650Z,98724.19
2022-10-06T09:33:02.653Z,98722.19
2022-10-06T09:35:31.328Z,98727.25
2022-10-06T09:38:08.117Z,98728.31
2022-10-06T09:40:38.398Z,98740.56
2022-10-06T09:43:18.156Z,98733.88
2022-10-06T09:45:44.714Z,98738.00
2022-10-06T09:48:13.382Z,98744.22
2022-10-06T09:50:40.596Z,98747.25
2022-10-06T09:53:12.518Z,98747.81
2022-10-06T09:55:38.837Z,98745.69
2022-10-06T09:58:32.699Z,98750.81
2022-10-06T10:01:01.976Z,98751.22
2022-10-06T10:04:08.580Z,98751.28
2022-10-06T10:06:37.533Z,98752.13
2022-10-06T10:09:21.696Z,98754.22
2022-10-06T10:12:24.339Z,98753.09
2022-10-06T10:14:51.993Z,98757.53
2022-10-06T10:17:22.229Z,98753.28
2022-10-06T10:19:54.382Z,98749.03
2022-10-06T10:22:24.653Z,98752.97
2022-10-06T10:25:00.024Z,98743.63
2022-10-06T10:27:51.190Z,98747.59
2022-10-06T10:30:18.454Z,98746.47
2022-10-06T10:32:50.800Z,98747.56
2022-10-06T10:35:31.985Z,98750.03
2022-10-06T10:38:04.657Z,98751.94
2022-10-06T10:40:47.228Z,98746.72
2022-10-06T10:43:20.124Z,98741.94
2022-10-06T10:46:01.483Z,98743.56
2022-10-06T10:48:47.209Z,98743.94
2022-10-06T10:51:26.788Z,98739.31
2022-10-06T10:54:09.567Z,98744.22
2022-10-06T10:56:36.205Z,98737.34
2022-10-06T10:59:17.053Z,98739.97
2022-10-06T11:02:10.829Z,98740.81
2022-10-06T11:04:43.650Z,98736.56
2022-10-06T11:07:36.304Z,98738.16
2022-10-06T11:10:13.418Z,98738.50
2022-10-06T11:12:57.914Z,98741.41
2022-10-06T11:15:57.487Z,98740.97
2022-10-06T11:18:42.728Z,98744.44
2022-10-06T11:21:15.935Z,98740.97
2022-10-06T11:23:53.296Z,98737.53
2022-10-06T11:26:50.851Z,98736.34
2022-10-06T11:29:45.071Z,98731.88
2022-10-06T11:32:39.397Z,98721.69
2022-10-06T11:35:24.160Z,98730.69
2022-10-06T11:37:58.665Z,98719.94
2022-10-06T11:40:38.899Z,98724.94
2022-10-06T11:43:12.340Z,98714.56
2022-10-06T11:46:01.037Z,98714.09
2022-10-06T11:48:31.769Z,98718.56
2022-10-06T11:51:23.930Z,98720.28
2022-10-06T11:53:51.597Z,98713.66
2022-10-06T11:56:17.936Z,98718.72
2022-10-06T11:58:56.308Z,98717.41
2022-10-06T12:01:35.033Z,98711.50
2022-10-06T12:04:24.558Z,98716.50
2022-10-06T12:06:56.156Z,98711.38
2022-10-06T12:09:30.905Z,98710.97
2022-10-06T12:12:17.777Z,98711.69
2022-10-06T12:17:05.487Z,98709.28
2022-10-06T12:18:21.231Z,98712.00
2022-10-06T12:21:17.753Z,98703.09
2022-10-06T12:24:05.114Z,98702.59
2022-10-06T12:26:34.308Z,98694.22
2022-10-06T12:29:21.298Z,98699.72
2022-10-06T12:32:09.610Z,98703.91
2022-10-06T12:34:39.062Z,98702.03
2022-10-06T12:37:21.987Z,98699.91
2022-10-06T12:39:48.373Z,98701.69
2022-10-06T12:42:27.364Z,98690.16
2022-10-06T12:44:53.841Z,98687.38
2022-10-06T12:47:37.414Z,98689.38
2022-10-06T12:50:15.973Z,98688.00
2022-10-06T12:53:20.596Z,98685.25
2022-10-06T12:55:50.329Z,98685.34
2022-10-06T12:58:28.451Z,98687.84
2022-10-06T13:01:01.159Z,98675.84
2022-10-06T13:03:29.068Z,98679.78
2022-10-06T13:06:04.109Z,98679.44
2022-10-06T13:08:33.439Z,98674.63
2022-10-06T13:11:20.823Z,98680.75
2022-10-06T13:14:00.950Z,98678.25
2022-10-06T13:16:40.583Z,98682.97
2022-10-06T13:19:19.017Z,98680.34
2022-10-06T13:21:46.549Z,98681.25
2022-10-06T13:24:19.178Z,98678.63
2022-10-06T13:26:46.858Z,98679.19
2022-10-06T13:29:17.458Z,98675.78
2022-10-06T13:31:52.616Z,98669.59
2022-10-06T13:34:30.164Z,98682.63
2022-10-06T13:36:59.510Z,98670.38
2022-10-06T13:39:31.507Z,98669.56
2022-10-06T13:42:03.191Z,98670.06
2022-10-06T13:44:37.905Z,98673.81
2022-10-06T13:47:15.924Z,98666.78
2022-10-06T13:49:47.446Z,98680.50
2022-10-06T13:52:36.896Z,98669.59
2022-10-06T13:55:15.990Z,98670.91
2022-10-06T13:57:47.767Z,98668.47
2022-10-06T14:00:14.180Z,98666.53
2022-10-06T14:02:45.340Z,98669.78
2022-10-06T14:05:26.913Z,98672.19
2022-10-06T14:08:15.601Z,98661.75
2022-10-06T14:11:00.813Z,98660.28
2022-10-06T14:13:49.665Z,98654.69
2022-10-06T14:16:24.153Z,98655.06
2022-10-06T14:18:59.760Z,98654.34
2022-10-06T14:21:37.078Z,98650.94
2022-10-06T14:24:15.729Z,98653.63
2022-10-06T14:26:43.629Z,98650.19
2022-10-06T14:29:10.284Z,98643.75
2022-10-06T14:31:37.289Z,98646.56
2022-10-06T14:34:04.702Z,98650.28
2022-10-06T14:36:35.713Z,98650.38
2022-10-06T14:39:04.028Z,98642.69
2022-10-06T14:41:31.541Z,98643.22
2022-10-06T14:44:05.599Z,98641.09
2022-10-06T14:46:33.174Z,98647.34
2022-10-06T14:49:00.066Z,98635.16
2022-10-06T14:51:27.421Z,98630.34
2022-10-06T14:53:58.819Z,98641.56
2022-10-06T14:56:28.921Z,98643.16
2022-10-06T14:58:55.630Z,98636.66
2022-10-06T15:01:25.221Z,98636.69
2022-10-06T15:03:56.575Z,98635.78
2022-10-06T15:06:42.177Z,98635.44
2022-10-06T15:09:09.128Z,98629.69
2022-10-06T15:11:36.713Z,98630.25
2022-10-06T15:14:03.867Z,98630.97
2022-10-06T15:16:32.456Z,98633.16
2022-10-06T15:19:00.582Z,98630.53
2022-10-06T15:21:27.661Z,98622.81
2022-10-06T15:23:59.629Z,98629.97
2022-10-06T15:26:45.212Z,98629.97
2022-10-06T15:29:13.268Z,98619.81
2022-10-06T15:31:45.184Z,98616.97
2022-10-06T15:34:14.862Z,98617.97
2022-10-06T15:36:42.580Z,98610.66
2022-10-06T15:39:14.409Z,98615.81
2022-10-06T15:41:42.825Z,98611.13
2022-10-06T15:44:10.449Z,98612.44
2022-10-06T15:46:39.706Z,98614.31
2022-10-06T15:49:15.810Z,98608.84
2022-10-06T15:51:49.002Z,98598.72
2022-10-06T15:54:21.703Z,98601.72
2022-10-06T15:56:50.600Z,98603.81
2022-10-06T15:59:18.937Z,98608.97
2022-10-06T16:01:47.530Z,98605.66
2022-10-06T16:04:36.947Z,98606.19
2022-10-06T16:07:05.104Z,98611.38
2022-10-06T16:09:37.018Z,98607.22
2022-10-06T16:12:07.891Z,98605.03
2022-10-06T16:14:35.496Z,98616.91
2022-10-06T16:17:03.701Z,98606.00
2022-10-06T16:19:31.769Z,98604.56
2022-10-06T16:22:00.055Z,98608.66
2022-10-06T16:24:26.901Z,98613.94
2022-10-06T16:26:53.709Z,98610.13
2022-10-06T16:29:21.221Z,98616.16
2022-10-06T16:31:48.055Z,98610.66
2022-10-06T16:34:14.748Z,98610.56
2022-10-06T16:36:41.949Z,98617.16
2022-10-06T16:39:13.524Z,98619.97
2022-10-06T16:41:39.877Z,98624.03
2022-10-06T16:44:06.444Z,98615.19
2022-10-06T16:46:33.509Z,98619.66
2022-10-06T16:49:01.800Z,98616.00
2022-10-06T16:51:31.124Z,98622.03
2022-10-06T16:54:05.756Z,98620.81
2022-10-06T16:56:37.831Z,98616.75
2022-10-06T16:59:07.309Z,98614.69
2022-10-06T17:01:36.385Z,98621.88
2022-10-06T17:04:10.386Z,98626.47
2022-10-06T17:06:39.371Z,98628.47
2022-10-06T17:09:14.192Z,98628.53
2022-10-06T17:11:47.041Z,98631.28
2022-10-06T17:14:14.202Z,98637.06
2022-10-06T17:16:43.287Z,98632.91
2022-10-06T17:19:11.894Z,98630.63
2022-10-06T17:21:48.150Z,98633.69
2022-10-06T17:24:19.818Z,98635.91
2022-10-06T17:26:48.992Z,98646.56
2022-10-06T17:29:18.909Z,98642.41
2022-10-06T17:31:46.631Z,98642.66
2022-10-06T17:34:21.478Z,98642.19
2022-10-06T17:36:51.214Z,98629.13
2022-10-06T17:39:24.300Z,98637.03
2022-10-06T17:41:53.344Z,98650.69
2022-10-06T17:44:23.135Z,98646.56
2022-10-06T17:46:52.595Z,98651.88
2022-10-06T17:49:24.107Z,98647.28
2022-10-06T17:51:52.088Z,98656.28
2022-10-06T17:54:20.913Z,98651.75
2022-10-06T17:56:49.302Z,98663.81
2022-10-06T17:59:22.198Z,98660.41
2022-10-06T18:01:50.987Z,98652.84
2022-10-06T18:04:18.362Z,98660.88
2022-10-06T18:06:46.126Z,98654.72
2022-10-06T18:09:13.545Z,98646.69
2022-10-06T18:11:45.790Z,98639.47
2022-10-06T18:14:12.318Z,98637.78
2022-10-06T18:16:40.343Z,98643.72
2022-10-06T18:19:10.372Z,98641.09
2022-10-06T18:21:41.174Z,98633.66
2022-10-06T18:24:12.652Z,98633.78
2022-10-06T18:26:41.782Z,98631.91
2022-10-06T18:29:10.008Z,98636.41
2022-10-06T18:31:38.311Z,98634.75
2022-10-06T18:36:51.714Z,98630.13
2022-10-06T18:39:18.212Z,98632.63
2022-10-06T18:41:46.187Z,98619.50
2022-10-06T18:44:12.729Z,98624.34
2022-10-06T18:46:57.706Z,98630.75
2022-10-06T18:49:25.204Z,98630.41
2022-10-06T18:51:58.106Z,98626.59
2022-10-06T18:54:31.165Z,98628.13
2022-10-06T18:56:57.958Z,98623.41
2022-10-06T18:59:26.937Z,98624.69
2022-10-06T19:01:56.542Z,98629.66
2022-10-06T19:04:23.986Z,98634.03
2022-10-06T19:06:52.523Z,98630.97
2022-10-06T19:09:21.288Z,98627.53
2022-10-06T19:11:55.364Z,98628.84
2022-10-06T19:14:35.140Z,98636.50
2022-10-06T19:17:06.546Z,98635.06
2022-10-06T19:19:33.970Z,98635.69
2022-10-06T19:22:02.615Z,98631.03
2022-10-06T19:24:40.939Z,98635.25
2022-10-06T19:27:13.650Z,98636.41
2022-10-06T19:29:45.449Z,98641.00
2022-10-06T19:32:19.065Z,98638.38
2022-10-06T19:34:47.012Z,98641.06
2022-10-06T19:37:14.501Z,98638.19
2022-10-06T19:39:43.783Z,98639.09
2022-10-06T19:42:30.382Z,98638.19
2022-10-06T19:44:56.865Z,98642.28
2022-10-06T19:47:23.658Z,98644.47
2022-10-06T19:49:50.202Z,98644.38
2022-10-06T19:52:16.714Z,98648.88
2022-10-06T19:54:43.277Z,98646.41
2022-10-06T19:57:11.446Z,98649.19
2022-10-06T19:59:38.076Z,98650.81
2022-10-06T20:02:07.977Z,98649.16
2022-10-06T20:04:34.645Z,98652.44
2022-10-06T20:07:01.833Z,98650.75
2022-10-06T20:09:31.741Z,98636.41
2022-10-06T20:11:58.588Z,98638.47
2022-10-06T20:14:26.527Z,98639.69
2022-10-06T20:16:54.633Z,98624.19
2022-10-06T20:19:21.700Z,98632.31
2022-10-06T20:21:48.617Z,98639.63
2022-10-06T20:24:22.496Z,98633.72
2022-10-06T20:26:50.476Z,98632.69
2022-10-06T20:29:20.308Z,98643.03
2022-10-06T20:31:50.022Z,98637.44
2022-10-06T20:34:19.660Z,98639.88
2022-10-06T20:36:47.950Z,98639.16
2022-10-06T20:39:40.096Z,98645.91
2022-10-06T20:42:13.675Z,98632.16
2022-10-06T20:44:42.163Z,98624.94
2022-10-06T20:47:09.000Z,98617.94
2022-10-06T20:49:35.830Z,98628.84
2022-10-06T20:52:04.354Z,98631.06
2022-10-06T20:54:34.469Z,98633.34
2022-10-06T20:57:04.014Z,98628.72
2022-10-06T20:59:31.517Z,98626.78
2022-10-06T21:02:00.801Z,98629.88
2022-10-06T21:04:27.833Z,98627.66
2022-10-06T21:06:54.631Z,98631.03
2022-10-06T21:09:21.272Z,98632.53
2022-10-06T21:11:47.718Z,98622.66
2022-10-06T21:14:14.559Z,98628.09
2022-10-06T21:16:43.407Z,98628.09
2022-10-06T21:19:14.420Z,98623.13
2022-10-06T21:21:42.255Z,98619.50
2022-10-06T21:24:09.176Z,98618.44
2022-10-06T21:26:36.589Z,98617.69
2022-10-06T21:29:03.243Z,98618.25
2022-10-06T21:31:29.813Z,98609.66
2022-10-06T21:33:56.474Z,98618.75
2022-10-06T21:36:27.823Z,98607.53
2022-10-06T21:38:56.226Z,98599.41
2022-10-06T21:41:39.028Z,98606.25
2022-10-06T21:44:13.912Z,98600.44
2022-10-06T21:46:47.459Z,98595.38
2022-10-06T21:49:19.972Z,98595.22
2022-10-06T21:51:48.843Z,98587.91
2022-10-06T21:54:16.271Z,98590.06
2022-10-06T21:56:43.080Z,98589.69
2022-10-06T21:59:10.195Z,98581.94
2022-10-06T22:01:39.261Z,98577.53
2022-10-06T22:04:06.165Z,98581.88
2022-10-06T22:06:34.149Z,98581.06
2022-10-06T22:09:01.379Z,98579.09
2022-10-06T22:11:30.409Z,98573.41
2022-10-06T22:14:00.199Z,98573.31
2022-10-06T22:16:29.131Z,98571.13
2022-10-06T22:18:55.928Z,98573.06
2022-10-06T22:21:28.063Z,98572.88
2022-10-06T22:23:59.798Z,98565.69
2022-10-06T22:26:28.114Z,98576.25
2022-10-06T22:28:56.043Z,98573.59
2022-10-06T22:31:26.313Z,98573.22
2022-10-06T22:33:58.808Z,98565.59
2022-10-06T22:36:27.004Z,98569.09
2022-10-06T22:38:53.541Z,98557.41
2022-10-06T22:41:20.376Z,98554.84
2022-10-06T22:43:47.295Z,98557.28
2022-10-06T22:46:14.297Z,98548.72
2022-10-06T22:48:41.670Z,98553.84
2022-10-06T22:51:08.548Z,98548.28
2022-10-06T22:53:35.367Z,98543.59
2022-10-06T22:56:03.587Z,98534.72
2022-10-06T22:58:30.138Z,98530.22
2022-10-06T23:00:56.796Z,98530.66
2022-10-06T23:03:23.874Z,98526.91
2022-10-06T23:05:58.156Z,98524.06
2022-10-06T23:08:28.068Z,98517.84
2022-10-06T23:11:04.149Z,98514.38
2022-10-06T23:13:31.432Z,98518.28
2022-10-06T23:16:07.752Z,98507.63
2022-10-06T23:18:36.803Z,98509.22
2022-10-06T23:21:21.217Z,98507.84
2022-10-06T23:23:56.295Z,98502.41
2022-10-06T23:26:23.936Z,98506.56
2022-10-06T23:28:52.808Z,98500.25
2022-10-06T23:31:19.278Z,98500.41
2022-10-06T23:33:46.159Z,98503.19
2022-10-06T23:36:14.288Z,98498.06
2022-10-06T23:38:42.113Z,98499.41
2022-10-06T23:41:08.651Z,98502.94
2022-10-06T23:43:35.251Z,98496.25
2022-10-06T23:46:02.739Z,98495.13
2022-10-06T23:48:29.727Z,98501.97
2022-10-06T23:51:03.969Z,98499.47
2022-10-06T23:53:31.183Z,98507.16
2022-10-06T23:55:58.386Z,98501.16
2022-10-06T23:58:25.332Z,98501.38
